Data for 12/09/2008

Time Sea-Level Adjusted Pressure Absolute Pressure Temperature Relative Humidity Dew Point   
(mb) (inHg) (mb) (inHg) (C) (F) (%) (C) (F)
00:05 1021 30.15 850 25.1 -5.2 22.6 76 -8.8 16.2
00:10 1021 30.15 850 25.1 -5 23.1 78 -8.2 17.2
00:15 1021 30.15 850 25.1 -4.9 23.1 80 -7.9 17.7
00:20 1020 30.12 850 25.1 -5.1 22.8 81 -7.8 17.9
00:25 1020 30.12 850 25.1 -5.3 22.5 82 -7.9 17.8
00:30 1020 30.12 850 25.1 -5.4 22.3 84 -7.7 18.1
00:35 1020 30.12 850 25.1 -5.4 22.3 82 -8.1 17.5
00:40 1021 30.15 850 25.1 -5.3 22.4 82 -8 17.7
00:45 1021 30.15 850 25.1 -5.3 22.5 80 -8.2 17.2
00:50 1021 30.15 850 25.1 -5.1 22.8 79 -8.2 17.2
00:55 1021 30.15 850 25.1 -5.1 22.8 84 -7.4 18.6
01:00 1021 30.15 850 25.1 -5.4 22.4 85 -7.5 18.4
01:05 1021 30.15 850 25.1 -5.5 22.2 84 -7.7 18.2
01:10 1021 30.15 850 25.1 -5.5 22 84 -7.8 18
01:15 1021 30.15 850 25.1 -5.5 22.1 81 -8.3 17.1
01:20 1021 30.15 851 25.13 -5.3 22.5 79 -8.3 17
01:25 1021 30.15 851 25.13 -4.9 23.2 81 -7.7 18.1
01:30 1022 30.18 851 25.13 -4.7 23.5 79 -7.9 17.8
01:35 1022 30.18 851 25.13 -4.6 23.8 78 -7.8 17.9
01:40 1022 30.18 851 25.13 -4.4 24 79 -7.6 18.4
01:45 1022 30.18 851 25.13 -4.4 24.1 79 -7.5 18.6
01:50 1022 30.18 851 25.13 -4.5 23.8 82 -7.2 19
01:55 1022 30.18 851 25.13 -4.8 23.4 83 -7.3 18.8
02:00 1022 30.18 851 25.13 -4.9 23.1 84 -7.2 19.1
02:05 1022 30.18 851 25.13 -5 23 85 -7.1 19.3
02:10 1022 30.18 851 25.13 -4.9 23.2 84 -7.2 19.1
02:15 1022 30.18 851 25.13 -4.8 23.5 83 -7.2 19.1
02:20 1022 30.18 851 25.13 -4.6 23.7 82 -7.2 19
02:25 1022 30.18 851 25.13 -4.5 23.9 80 -7.4 18.6
02:30 1022 30.18 851 25.13 -4.4 24.1 81 -7.2 19.1
02:35 1022 30.18 851 25.13 -4.5 24 81 -7.2 19
02:40 1022 30.18 851 25.13 -4.5 23.9 82 -7.1 19.3
02:45 1022 30.18 852 25.16 -4.6 23.8 86 -6.6 20.1
02:50 1022 30.18 852 25.16 -4.8 23.3 87 -6.7 19.9
02:55 1022 30.18 852 25.16 -5.2 22.7 89 -6.8 19.8
03:00 1023 30.21 852 25.16 -5.2 22.6 89 -6.8 19.8
03:05 1023 30.21 852 25.16 -5.3 22.5 89 -6.9 19.7
03:10 1023 30.21 852 25.16 -5.1 22.7 88 -6.9 19.6
03:15 1023 30.21 852 25.16 -5.1 22.8 87 -6.9 19.5
03:20 1022 30.18 852 25.16 -5.1 22.8 87 -7 19.5
03:25 1022 30.18 852 25.16 -5.2 22.7 87 -7 19.5
03:30 1022 30.18 852 25.16 -5.2 22.6 89 -6.8 19.8
03:35 1022 30.18 852 25.16 -5.3 22.5 90 -6.7 20
03:40 1022 30.18 852 25.16 -5.3 22.4 89 -6.8 19.7
03:45 1022 30.18 852 25.16 -5.2 22.6 89 -6.8 19.8
03:50 1022 30.18 852 25.16 -5.2 22.6 89 -6.8 19.7
03:55 1022 30.18 852 25.16 -5.3 22.5 89 -6.8 19.8
04:00 1022 30.18 851 25.13 -5.4 22.2 89 -7 19.5
04:05 1022 30.18 851 25.13 -5.6 22 90 -7 19.4
04:10 1022 30.18 851 25.13 -5.6 22 89 -7.1 19.1
04:15 1022 30.18 851 25.13 -5.5 22.1 88 -7.2 19.1
04:20 1022 30.18 851 25.13 -5.5 22.2 87 -7.3 18.9
04:25 1022 30.18 851 25.13 -5.5 22.1 86 -7.5 18.5
04:30 1022 30.18 851 25.13 -5.5 22.1 87 -7.4 18.7
04:35 1022 30.18 851 25.13 -5.6 21.9 86 -7.6 18.4
04:40 1022 30.18 851 25.13 -5.6 22 85 -7.7 18.2
04:45 1022 30.18 851 25.13 -5.4 22.2 84 -7.8 18
04:50 1022 30.18 851 25.13 -5.3 22.4 83 -7.8 17.9
04:55 1022 30.18 851 25.13 -5.3 22.5 83 -7.8 18
05:00 1022 30.18 851 25.13 -5.2 22.7 82 -7.8 18
05:05 1022 30.18 852 25.16 -5 23 79 -8.2 17.3
05:10 1022 30.18 852 25.16 -4.7 23.6 76 -8.2 17.2
05:15 1022 30.18 852 25.16 -4.2 24.4 77 -7.7 18.2
05:20 1022 30.18 852 25.16 -4.1 24.6 78 -7.4 18.7
05:25 1022 30.18 851 25.13 -4.2 24.4 81 -7.1 19.3
05:30 1022 30.18 851 25.13 -4.7 23.5 80 -7.7 18.1
05:35 1022 30.18 851 25.13 -4.6 23.7 78 -7.8 17.9
05:40 1022 30.18 852 25.16 -4.1 24.6 75 -7.9 17.7
05:45 1022 30.18 852 25.16 -3.8 25.2 73 -7.9 17.7
05:50 1023 30.21 852 25.16 -3.7 25.3 74 -7.7 18.2
05:55 1023 30.21 852 25.16 -3.8 25.1 73 -8 17.7
06:00 1023 30.21 852 25.16 -3.7 25.3 73 -8 17.6
06:05 1023 30.21 852 25.16 -3.7 25.4 71 -8.1 17.4
06:10 1023 30.21 852 25.16 -3.5 25.6 70 -8.2 17.3
06:15 1023 30.21 852 25.16 -3.5 25.7 71 -8.1 17.5
06:20 1023 30.21 852 25.16 -3.5 25.7 71 -8 17.5
06:25 1023 30.21 852 25.16 -3.6 25.6 70 -8.3 17
06:30 1023 30.21 852 25.16 -3.6 25.6 70 -8.3 17
06:35 1023 30.21 852 25.16 -3.5 25.6 70 -8.3 17.1
06:40 1023 30.21 852 25.16 -3.6 25.5 72 -7.9 17.8
06:45 1023 30.21 852 25.16 -3.6 25.4 69 -8.5 16.7
06:50 1023 30.21 852 25.16 -3.4 25.8 69 -8.3 17.1
06:55 1023 30.21 852 25.16 -3.4 25.8 71 -7.9 17.7
07:00 1023 30.21 852 25.16 -3.5 25.6 70 -8.2 17.2
07:05 1023 30.21 852 25.16 -3.5 25.7 71 -8.1 17.5
07:10 1023 30.21 853 25.19 -3.5 25.8 68 -8.5 16.7
07:15 1023 30.21 853 25.19 -3.4 25.9 71 -7.9 17.9
07:20 1023 30.21 853 25.19 -3.5 25.7 72 -7.8 18
07:25 1023 30.21 853 25.19 -3.6 25.5 73 -7.8 17.9
07:30 1024 30.24 853 25.19 -3.6 25.5 69 -8.5 16.7
07:35 1024 30.24 853 25.19 -3.5 25.7 68 -8.5 16.7
07:40 1024 30.24 853 25.19 -3.4 25.9 70 -8.2 17.2
07:45 1024 30.24 853 25.19 -3.4 25.8 68 -8.5 16.7
07:50 1024 30.24 853 25.19 -3.4 25.8 69 -8.3 17.1
07:55 1024 30.24 853 25.19 -3.5 25.7 76 -7.2 19.1
08:00 1024 30.24 853 25.19 -4 24.7 80 -7.1 19.3
08:05 1024 30.24 853 25.19 -4.1 24.6 77 -7.6 18.3
08:10 1024 30.24 853 25.19 -3.8 25.2 78 -7.1 19.3
08:15 1024 30.24 853 25.19 -3.8 25.1 76 -7.5 18.5
08:20 1024 30.24 853 25.19 -3.7 25.3 70 -8.4 16.9
08:25 1024 30.24 853 25.19 -3.5 25.7 65 -9.1 15.6
08:30 1024 30.24 853 25.19 -3.5 25.7 65 -9.2 15.5
08:35 1024 30.24 853 25.19 -3.4 25.8 64 -9.2 15.4
08:40 1024 30.24 853 25.19 -3.2 26.2 64 -9.1 15.6
08:45 1024 30.24 853 25.19 -3 26.6 62 -9.2 15.4
08:50 1024 30.24 853 25.19 -2.8 27 61 -9.3 15.2
08:55 1024 30.24 853 25.19 -2.6 27.2 60 -9.3 15.2
09:00 1024 30.24 853 25.19 -2.7 27.2 61 -9.3 15.3
09:05 1024 30.24 853 25.19 -2.5 27.5 59 -9.4 15.2
09:10 1024 30.24 854 25.22 -2.4 27.7 60 -9.1 15.6
09:15 1024 30.24 854 25.22 -2.4 27.6 61 -9 15.9
09:20 1024 30.24 854 25.22 -2.6 27.3 61 -9.2 15.5
09:25 1024 30.24 854 25.22 -2.7 27.2 60 -9.3 15.3
09:30 1024 30.24 854 25.22 -3 26.5 63 -9.2 15.5
09:35 1024 30.24 854 25.22 -3.2 26.2 64 -9 15.8
09:40 1024 30.24 853 25.19 -4.1 24.6 68 -9.1 15.6
09:45 1024 30.24 854 25.22 -4.6 23.8 70 -9.3 15.3
09:50 1024 30.24 854 25.22 -4.5 24 68 -9.5 14.9
09:55 1024 30.24 854 25.22 -3.8 25.1 64 -9.7 14.6
10:00 1024 30.24 854 25.22 -2.9 26.8 60 -9.5 14.9
10:05 1025 30.27 854 25.22 -2.5 27.4 61 -9.1 15.7
10:10 1024 30.24 854 25.22 -3.3 26.1 62 -9.6 14.7
10:15 1024 30.24 854 25.22 -3.2 26.3 62 -9.6 14.8
10:20 1024 30.24 854 25.22 -3.2 26.2 59 -10.2 13.6
10:25 1024 30.24 854 25.22 -2.5 27.5 57 -9.8 14.4
10:30 1024 30.24 854 25.22 -2.1 28.3 55 -10 13.9
10:35 1025 30.27 854 25.22 -1.1 30 54 -9.2 15.4
10:40 1025 30.27 854 25.22 -0.2 31.6 52 -8.9 16
10:45 1025 30.27 854 25.22 0.2 32.4 50 -9 15.8
10:50 1025 30.27 854 25.22 0.8 33.4 49 -8.7 16.4
10:55 1025 30.27 854 25.22 0.7 33.2 49 -8.8 16.1
11:00 1025 30.27 854 25.22 0.7 33.2 50 -8.7 16.4
11:05 1025 30.27 854 25.22 0.2 32.4 50 -9 15.9
11:10 1025 30.27 854 25.22 0.4 32.7 48 -9.5 15
11:15 1025 30.27 854 25.22 0.4 32.7 49 -9 15.7
11:20 1025 30.27 854 25.22 0.4 32.7 49 -9.2 15.4
11:25 1024 30.24 854 25.22 0.5 32.9 48 -9.2 15.5
11:30 1024 30.24 854 25.22 0.8 33.4 47 -9.4 15.1
11:35 1024 30.24 853 25.19 0.7 33.2 49 -9 15.9
11:40 1024 30.24 853 25.19 1 33.7 45 -9.6 14.8
11:45 1024 30.24 853 25.19 1.2 34.1 47 -8.9 16
11:50 1024 30.24 853 25.19 0.9 33.7 47 -9.3 15.3
11:55 1024 30.24 853 25.19 1 33.8 46 -9.3 15.3
12:00 1024 30.24 853 25.19 1.5 34.7 46 -9 15.9
12:05 1024 30.24 853 25.19 1.9 35.4 47 -8.3 17.1
12:10 1024 30.24 853 25.19 1.5 34.6 47 -8.6 16.5
12:15 1024 30.24 853 25.19 0.6 33.1 52 -8.1 17.3
12:20 1024 30.24 853 25.19 -0.1 31.8 50 -9.3 15.3
12:25 1023 30.21 853 25.19 -0.4 31.2 53 -8.8 16.1
12:30 1023 30.21 853 25.19 -0.8 30.6 52 -9.5 14.8
12:35 1023 30.21 852 25.16 -0.3 31.4 49 -9.7 14.6
12:40 1023 30.21 852 25.16 -0.8 30.6 52 -9.5 15
12:45 1023 30.21 852 25.16 -0.3 31.5 51 -9.3 15.3
12:50 1023 30.21 852 25.16 0.7 33.3 45 -9.9 14.1
12:55 1023 30.21 852 25.16 0 32.1 51 -9 15.7
13:00 1023 30.21 852 25.16 -0.9 30.3 52 -9.6 14.7
13:05 1023 30.21 852 25.16 -0.1 31.7 50 -9.3 15.2
13:10 1023 30.21 852 25.16 0.2 32.4 48 -9.5 14.9
13:15 1023 30.21 852 25.16 0.7 33.3 47 -9.2 15.4
13:20 1023 30.21 852 25.16 0.3 32.5 49 -9.3 15.3
13:25 1023 30.21 852 25.16 0.3 32.5 50 -9 15.8
13:30 1023 30.21 852 25.16 1.2 34.1 45 -9.5 15
13:35 1023 30.21 852 25.16 0.9 33.7 48 -8.8 16.1
13:40 1023 30.21 852 25.16 0.7 33.3 46 -9.7 14.5
13:45 1023 30.21 852 25.16 0.5 33 49 -9 15.8
13:50 1023 30.21 852 25.16 0.2 32.4 50 -9 15.8
13:55 1023 30.21 852 25.16 1 33.8 46 -9.5 14.9
14:00 1023 30.21 852 25.16 1.5 34.6 47 -8.8 16.2
14:05 1023 30.21 852 25.16 1.3 34.3 44 -9.8 14.4
14:10 1023 30.21 852 25.16 1.1 34 45 -9.6 14.7
14:15 1023 30.21 852 25.16 1.5 34.8 43 -9.7 14.5
14:20 1023 30.21 852 25.16 2.2 35.9 43 -9.3 15.2
14:25 1023 30.21 852 25.16 2.6 36.7 41 -9.4 15
14:30 1023 30.21 852 25.16 2.9 37.3 41 -9.1 15.7
14:35 1023 30.21 852 25.16 2.3 36.1 43 -9.1 15.7
14:40 1023 30.21 852 25.16 1.7 35 51 -7.3 18.8
14:45 1023 30.21 852 25.16 0.1 32.2 56 -7.7 18.2
14:50 1023 30.21 852 25.16 -0.9 30.4 58 -8.1 17.5
14:55 1023 30.21 852 25.16 -1 30.2 58 -8.2 17.3
15:00 1023 30.21 852 25.16 -1.1 30 59 -8.2 17.2
15:05 1023 30.21 852 25.16 -1.3 29.6 57 -8.7 16.3
15:10 1023 30.21 852 25.16 -1.4 29.4 61 -8 17.5
15:15 1023 30.21 852 25.16 -1.1 30 64 -7.2 19.1
15:20 1023 30.21 852 25.16 -1 30.3 60 -7.7 18.2
15:25 1023 30.21 852 25.16 -1.4 29.5 61 -8 17.6
15:30 1023 30.21 852 25.16 -1.3 29.7 63 -7.5 18.5
15:35 1023 30.21 852 25.16 -1.4 29.5 64 -7.3 18.9
15:40 1023 30.21 852 25.16 -1.6 29.1 62 -7.9 17.8
15:45 1023 30.21 852 25.16 -1.5 29.3 63 -7.6 18.3
15:50 1023 30.21 852 25.16 -1.3 29.7 60 -8.1 17.4
15:55 1023 30.21 852 25.16 -1.3 29.6 61 -7.9 17.9
16:00 1023 30.21 852 25.16 -1.3 29.6 61 -8 17.6
16:05 1023 30.21 852 25.16 -1.3 29.7 62 -7.7 18.1
16:10 1023 30.21 852 25.16 -1.4 29.5 60 -8.2 17.3
16:15 1023 30.21 852 25.16 -1.1 30.1 58 -8.4 16.9
16:20 1023 30.21 852 25.16 -0.6 30.9 54 -8.7 16.3
16:25 1023 30.21 852 25.16 -0.5 31.1 55 -8.4 16.9
16:30 1023 30.21 852 25.16 -0.7 30.8 57 -8.3 17.1
16:35 1023 30.21 852 25.16 -0.7 30.7 58 -8 17.5
16:40 1023 30.21 852 25.16 -0.9 30.4 60 -7.8 18
16:45 1023 30.21 852 25.16 -1.1 30.1 60 -7.8 18
16:50 1023 30.21 852 25.16 -1.1 30 58 -8.3 17.1
16:55 1023 30.21 852 25.16 -0.8 30.5 59 -7.9 17.7
17:00 1023 30.21 852 25.16 -1.1 30.1 63 -7.3 18.8
17:05 1023 30.21 852 25.16 -1.3 29.7 61 -7.9 17.8
17:10 1023 30.21 852 25.16 -1.3 29.6 57 -8.7 16.4
17:15 1023 30.21 852 25.16 -1.2 29.9 58 -8.3 17
17:20 1023 30.21 852 25.16 -1.1 30 61 -7.7 18.2
17:25 1023 30.21 852 25.16 -1 30.2 59 -8 17.5
17:30 1023 30.21 852 25.16 -0.9 30.4 57 -8.4 16.9
17:35 1022 30.18 852 25.16 -0.9 30.4 61 -7.5 18.5
17:40 1023 30.21 852 25.16 -0.9 30.4 60 -7.7 18.1
17:45 1022 30.18 852 25.16 -0.7 30.8 61 -7.3 18.8
17:50 1022 30.18 852 25.16 -0.9 30.3 62 -7.3 18.8
17:55 1022 30.18 851 25.13 -0.8 30.5 58 -8 17.7
18:00 1022 30.18 851 25.13 -0.5 31.1 55 -8.4 16.9
18:05 1022 30.18 851 25.13 -0.7 30.7 61 -7.2 19
18:10 1022 30.18 851 25.13 -0.8 30.6 64 -6.8 19.7
18:15 1022 30.18 851 25.13 -1 30.3 63 -7.2 19.1
18:20 1022 30.18 851 25.13 -0.8 30.6 63 -7 19.5
18:25 1022 30.18 851 25.13 -0.3 31.4 63 -6.6 20.1
18:30 1022 30.18 851 25.13 -0.4 31.3 60 -7.1 19.1
18:35 1022 30.18 851 25.13 -0 31.9 63 -6.3 20.6
18:40 1022 30.18 851 25.13 -0.3 31.5 62 -6.7 20
18:45 1022 30.18 851 25.13 -0.6 30.9 61 -7.2 19
18:50 1022 30.18 851 25.13 -0.5 31.1 64 -6.5 20.2
18:55 1022 30.18 851 25.13 -0.2 31.7 64 -6.3 20.7
19:00 1022 30.18 851 25.13 -0.5 31.2 62 -7 19.5
19:05 1022 30.18 852 25.16 -0.3 31.4 64 -6.4 20.5
19:10 1022 30.18 852 25.16 0.1 32.2 61 -6.5 20.3
19:15 1022 30.18 852 25.16 0.5 32.9 58 -6.8 19.8
19:20 1022 30.18 851 25.13 0.7 33.2 56 -7.1 19.2
19:25 1022 30.18 851 25.13 0.8 33.5 56 -7 19.4
19:30 1022 30.18 851 25.13 0.7 33.2 57 -6.9 19.7
19:35 1022 30.18 851 25.13 0.7 33.3 58 -6.6 20.2
19:40 1022 30.18 851 25.13 0.6 33.1 66 -5 23
19:45 1022 30.18 851 25.13 0.1 32.2 65 -5.7 21.7
19:50 1022 30.18 851 25.13 -0.3 31.5 66 -5.9 21.4
19:55 1022 30.18 851 25.13 -0.4 31.2 67 -5.9 21.4
20:00 1022 30.18 851 25.13 -0.3 31.4 64 -6.3 20.7
20:05 1022 30.18 851 25.13 -0.3 31.4 65 -6.2 20.9
20:10 1022 30.18 851 25.13 -0.1 31.8 64 -6 21.1
20:15 1022 30.18 851 25.13 0.2 32.4 63 -6 21.2
20:20 1022 30.18 851 25.13 0.4 32.7 64 -5.6 21.9
20:25 1022 30.18 851 25.13 0.7 33.2 60 -6.3 20.6
20:30 1022 30.18 851 25.13 0.8 33.5 63 -5.5 22.1
20:35 1022 30.18 851 25.13 0 32.1 64 -5.9 21.4
20:40 1022 30.18 851 25.13 0 32 63 -6.2 20.9
20:45 1022 30.18 851 25.13 0.1 32.2 65 -5.8 21.6
20:50 1022 30.18 851 25.13 0.2 32.4 63 -6 21.3
20:55 1022 30.18 851 25.13 0.6 33.2 61 -5.9 21.3
21:00 1022 30.18 851 25.13 1 33.8 61 -5.7 21.7
21:05 1022 30.18 851 25.13 1.2 34.1 60 -5.8 21.5
21:10 1022 30.18 851 25.13 1.2 34.2 61 -5.4 22.3
21:15 1022 30.18 851 25.13 1.3 34.4 61 -5.5 22.1
21:20 1022 30.18 851 25.13 1.4 34.6 60 -5.6 22
21:25 1022 30.18 851 25.13 1.6 34.9 61 -5.1 22.7
21:30 1022 30.18 851 25.13 1.2 34.2 59 -6 21.2
21:35 1022 30.18 851 25.13 1.1 33.9 64 -5.1 22.8
21:40 1022 30.18 851 25.13 0.8 33.5 63 -5.5 22.2
21:45 1022 30.18 851 25.13 0.9 33.6 61 -5.8 21.6
21:50 1022 30.18 851 25.13 0.9 33.6 62 -5.6 21.9
21:55 1022 30.18 852 25.16 0.8 33.5 64 -5.2 22.6
22:00 1022 30.18 852 25.16 0.8 33.4 65 -5.2 22.7
22:05 1022 30.18 852 25.16 0.6 33.1 67 -4.8 23.3
22:10 1023 30.21 852 25.16 0.7 33.2 62 -5.8 21.6
22:15 1023 30.21 852 25.16 1.1 34 62 -5.4 22.4
22:20 1023 30.21 852 25.16 1.1 34 64 -5.1 22.9
22:25 1023 30.21 852 25.16 1 33.7 63 -5.2 22.6
22:30 1023 30.21 852 25.16 1.1 34 64 -4.9 23.2
22:35 1023 30.21 852 25.16 1.1 34 65 -4.7 23.5
22:40 1023 30.21 852 25.16 1 33.8 64 -5.1 22.8
22:45 1023 30.21 852 25.16 1 33.8 65 -4.7 23.5
22:50 1023 30.21 852 25.16 1.1 34 66 -4.5 23.9
22:55 1023 30.21 852 25.16 1.3 34.4 65 -4.5 23.9
23:00 1023 30.21 852 25.16 1.3 34.3 66 -4.4 24.1
23:05 1023 30.21 852 25.16 1.3 34.4 67 -4.1 24.6
23:10 1023 30.21 852 25.16 1.3 34.3 64 -4.7 23.5
23:15 1023 30.21 852 25.16 1.7 35 66 -4 24.8
23:20 1023 30.21 852 25.16 1.6 34.8 60 -5.3 22.5
23:25 1023 30.21 852 25.16 1.8 35.2 57 -5.9 21.3
23:30 1023 30.21 852 25.16 2 35.5 59 -5.1 22.8
23:35 1023 30.21 852 25.16 1.8 35.2 63 -4.5 23.9
23:40 1023 30.21 852 25.16 1.7 35.1 71 -3 26.7
23:45 1023 30.21 852 25.16 1.6 34.9 65 -4.2 24.5
23:50 1023 30.21 852 25.16 1.6 34.9 70 -3.2 26.2
23:55 1023 30.21 852 25.16 1.5 34.8 74 -2.7 27.2
24:00 1023 30.21 852 25.16 1.3 34.3 75 -2.6 27.3